createdAt,value
2018-03-20T00:02:08.629Z,5.23
2018-03-20T00:04:37.181Z,5.13
2018-03-20T00:07:05.735Z,5.80
2018-03-20T00:09:34.425Z,5.90
2018-03-20T00:12:02.978Z,7.20
2018-03-20T00:14:32.306Z,5.70
2018-03-20T00:17:00.933Z,7.30
2018-03-20T00:19:29.493Z,10.53
2018-03-20T00:21:58.056Z,5.67
2018-03-20T00:24:27.808Z,6.33
2018-03-20T00:26:56.366Z,8.47
2018-03-20T00:29:24.925Z,5.70
2018-03-20T00:31:54.480Z,8.10
2018-03-20T00:34:23.032Z,6.80
2018-03-20T00:36:51.606Z,6.40
2018-03-20T00:39:21.251Z,6.47
2018-03-20T00:41:49.802Z,7.60
2018-03-20T00:44:18.348Z,6.57
2018-03-20T00:46:47.214Z,6.83
2018-03-20T00:49:15.766Z,7.53
2018-03-20T00:51:44.329Z,12.37
2018-03-20T00:54:13.704Z,20.20
2018-03-20T00:56:42.289Z,8.83
2018-03-20T00:59:10.845Z,9.50
2018-03-20T01:01:39.738Z,7.87
2018-03-20T01:04:08.297Z,8.30
2018-03-20T01:06:36.875Z,10.70
2018-03-20T01:09:05.549Z,9.43
2018-03-20T01:11:34.096Z,6.47
2018-03-20T01:14:02.657Z,9.87
2018-03-20T01:16:31.351Z,7.13
2018-03-20T01:18:59.929Z,6.67
2018-03-20T01:21:28.486Z,7.00
2018-03-20T01:23:57.144Z,8.20
2018-03-20T01:26:25.701Z,8.20
2018-03-20T01:28:55.038Z,8.70
2018-03-20T01:31:23.972Z,8.83
2018-03-20T01:33:52.529Z,8.20
2018-03-20T01:36:21.084Z,8.70
2018-03-20T01:38:49.699Z,8.70
2018-03-20T01:41:18.258Z,10.07
2018-03-20T01:43:46.826Z,9.40
2018-03-20T01:46:16.196Z,10.13
2018-03-20T01:48:44.753Z,9.20
2018-03-20T01:51:13.316Z,8.87
2018-03-20T01:53:42.132Z,10.70
2018-03-20T01:56:10.687Z,10.70
2018-03-20T01:58:39.278Z,10.27
2018-03-20T02:01:08.189Z,12.10
2018-03-20T02:03:36.741Z,12.37
2018-03-20T02:06:05.322Z,11.40
2018-03-20T02:08:34.012Z,10.87
2018-03-20T02:11:02.598Z,13.00
2018-03-20T02:13:31.187Z,11.10
2018-03-20T02:16:00.008Z,11.97
2018-03-20T02:18:28.561Z,12.00
2018-03-20T02:20:57.128Z,10.20
2018-03-20T02:23:26.353Z,11.23
2018-03-20T02:25:54.909Z,10.13
2018-03-20T02:28:23.459Z,8.60
2018-03-20T02:30:52.081Z,9.17
2018-03-20T02:33:20.652Z,9.00
2018-03-20T02:35:49.210Z,9.10
2018-03-20T02:38:18.593Z,11.43
2018-03-20T02:40:47.156Z,10.70
2018-03-20T02:43:15.706Z,9.80
2018-03-20T02:45:44.533Z,8.27
2018-03-20T02:48:13.093Z,8.77
2018-03-20T02:50:41.659Z,7.00
2018-03-20T02:53:10.289Z,7.53
2018-03-20T02:55:38.840Z,5.03
2018-03-20T02:58:07.397Z,5.43
2018-03-20T03:00:36.781Z,6.77
2018-03-20T03:03:06.119Z,5.47
2018-03-20T03:05:35.621Z,5.40
2018-03-20T03:08:04.451Z,4.53
2018-03-20T03:10:33.021Z,5.57
2018-03-20T03:13:01.572Z,6.30
2018-03-20T03:15:30.952Z,4.07
2018-03-20T03:18:00.273Z,5.10
2018-03-20T03:20:29.591Z,4.07
2018-03-20T03:22:58.201Z,5.17
2018-03-20T03:25:26.776Z,3.30
2018-03-20T03:27:55.389Z,5.10
2018-03-20T03:30:24.002Z,4.10
2018-03-20T03:32:53.326Z,3.80
2018-03-20T03:35:21.886Z,4.83
2018-03-20T03:37:51.384Z,4.43
2018-03-20T03:40:20.706Z,4.63
2018-03-20T03:42:49.282Z,5.47
2018-03-20T03:45:18.736Z,4.33
2018-03-20T03:47:47.291Z,4.60
2018-03-20T03:50:15.852Z,5.17
2018-03-20T03:52:45.214Z,4.10
2018-03-20T03:55:13.795Z,4.30
2018-03-20T03:57:42.341Z,4.97
2018-03-20T04:00:11.033Z,4.40
2018-03-20T04:02:39.596Z,5.87
2018-03-20T04:05:08.185Z,5.73
2018-03-20T04:07:36.977Z,7.53
2018-03-20T04:10:06.369Z,7.20
2018-03-20T04:12:34.929Z,4.50
2018-03-20T04:15:03.744Z,3.83
2018-03-20T04:17:32.297Z,4.53
2018-03-20T04:20:00.848Z,5.57
2018-03-20T04:22:30.245Z,3.90
2018-03-20T04:24:59.618Z,3.60
2018-03-20T04:27:28.167Z,3.50
2018-03-20T04:29:57.049Z,3.93
2018-03-20T04:32:26.369Z,4.23
2018-03-20T04:34:54.912Z,4.83
2018-03-20T04:37:25.197Z,4.37
2018-03-20T04:39:53.744Z,4.43
2018-03-20T04:42:22.292Z,3.83
2018-03-20T04:44:51.047Z,4.93
2018-03-20T04:47:19.606Z,4.70
2018-03-20T04:49:48.173Z,5.33
2018-03-20T04:52:16.772Z,5.23
2018-03-20T04:54:45.349Z,5.37
2018-03-20T04:57:13.897Z,7.87
2018-03-20T04:59:42.756Z,6.23
2018-03-20T05:02:11.307Z,5.93
2018-03-20T05:04:39.862Z,4.57
2018-03-20T05:07:09.232Z,4.77
2018-03-20T05:09:37.782Z,4.93
2018-03-20T05:12:06.375Z,5.17
2018-03-20T05:14:34.983Z,4.43
2018-03-20T05:17:03.566Z,6.23
2018-03-20T05:19:32.916Z,6.30
2018-03-20T05:22:07.624Z,6.53
2018-03-20T05:24:36.988Z,12.70
2018-03-20T05:27:05.578Z,15.70
2018-03-20T05:29:34.218Z,17.80
2018-03-20T05:32:02.809Z,11.10
2018-03-20T05:34:31.439Z,10.67
2018-03-20T05:37:00.073Z,8.90
2018-03-20T05:39:28.649Z,9.77
2018-03-20T05:41:57.246Z,8.60
2018-03-20T05:44:25.869Z,9.93
2018-03-20T05:47:08.161Z,10.43
2018-03-20T05:49:42.242Z,11.13
2018-03-20T05:52:10.837Z,10.23
2018-03-20T05:54:39.411Z,8.73
2018-03-20T05:57:08.204Z,7.37
2018-03-20T05:59:36.754Z,7.63
2018-03-20T06:02:05.310Z,8.60
2018-03-20T06:04:34.769Z,11.87
2018-03-20T06:07:03.329Z,11.63
2018-03-20T06:09:31.897Z,10.27
2018-03-20T06:12:00.520Z,13.33
2018-03-20T06:14:29.090Z,10.30
2018-03-20T06:16:57.695Z,11.70
2018-03-20T06:19:26.333Z,7.53
2018-03-20T06:21:54.920Z,5.83
2018-03-20T06:24:23.485Z,10.43
2018-03-20T06:26:53.151Z,29.93
2018-03-20T06:29:21.721Z,11.57
2018-03-20T06:31:50.276Z,14.13
2018-03-20T06:34:18.911Z,11.87
2018-03-20T06:36:47.482Z,9.87
2018-03-20T06:39:16.041Z,10.03
2018-03-20T06:41:44.850Z,8.93
2018-03-20T06:44:13.402Z,8.27
2018-03-20T06:46:41.953Z,11.00
2018-03-20T06:49:11.341Z,13.77
2018-03-20T06:51:39.910Z,57.47
2018-03-20T06:54:08.555Z,15.73
2018-03-20T06:56:37.283Z,13.43
2018-03-20T06:59:05.851Z,32.03
2018-03-20T07:01:34.415Z,16.37
2018-03-20T07:04:03.032Z,16.57
2018-03-20T07:06:31.603Z,17.50
2018-03-20T07:09:00.929Z,22.00
2018-03-20T07:11:29.538Z,15.53
2018-03-20T07:13:58.865Z,9.37
2018-03-20T07:16:27.427Z,8.47
2018-03-20T07:18:56.141Z,7.83
2018-03-20T07:21:24.709Z,8.17
2018-03-20T07:23:53.275Z,7.50
2018-03-20T07:26:22.654Z,10.80
2018-03-20T07:28:51.220Z,8.53
2018-03-20T07:31:20.549Z,12.37
2018-03-20T07:33:50.672Z,9.57
2018-03-20T07:36:19.998Z,12.57
2018-03-20T07:38:48.563Z,7.83
2018-03-20T07:41:17.960Z,12.93
2018-03-20T07:43:47.285Z,9.30
2018-03-20T07:46:15.853Z,9.53
2018-03-20T07:48:45.414Z,18.83
2018-03-20T07:51:13.977Z,7.60
2018-03-20T07:53:42.540Z,6.07
2018-03-20T07:56:11.373Z,7.30
2018-03-20T07:58:39.925Z,5.87
2018-03-20T08:01:09.236Z,7.20
2018-03-20T08:03:38.142Z,5.97
2018-03-20T08:06:06.701Z,6.40
2018-03-20T08:08:35.274Z,7.40
2018-03-20T08:11:03.899Z,6.17
2018-03-20T08:13:33.291Z,4.90
2018-03-20T08:16:01.854Z,4.77
2018-03-20T08:18:30.666Z,4.40
2018-03-20T08:20:59.228Z,5.77
2018-03-20T08:23:27.786Z,5.83
2018-03-20T08:25:57.150Z,3.53
2018-03-20T08:28:25.712Z,5.57
2018-03-20T08:30:54.261Z,5.27
2018-03-20T08:33:23.141Z,5.50
2018-03-20T08:35:52.458Z,3.80
2018-03-20T08:38:21.005Z,3.97
2018-03-20T08:40:49.605Z,5.00
2018-03-20T08:43:28.109Z,4.27
2018-03-20T08:45:57.473Z,4.57
2018-03-20T08:48:26.013Z,4.50
2018-03-20T08:50:54.905Z,4.30
2018-03-20T08:53:24.265Z,3.80
2018-03-20T08:55:52.824Z,3.20
2018-03-20T08:58:21.368Z,3.60
2018-03-20T09:00:51.078Z,2.97
2018-03-20T09:03:19.653Z,3.83
2018-03-20T09:05:48.965Z,3.63
2018-03-20T09:08:17.797Z,3.23
2018-03-20T09:10:46.346Z,4.83
2018-03-20T09:13:14.897Z,4.50
2018-03-20T09:15:43.497Z,3.17
2018-03-20T09:18:12.817Z,3.73
2018-03-20T09:20:41.373Z,3.53
2018-03-20T09:23:09.974Z,4.23
2018-03-20T09:25:38.538Z,6.37
2018-03-20T09:28:07.089Z,3.70
2018-03-20T09:30:36.478Z,7.30
2018-03-20T09:33:05.042Z,4.93
2018-03-20T09:35:33.658Z,3.20
2018-03-20T09:38:03.017Z,3.80
2018-03-20T09:40:32.360Z,3.63
2018-03-20T09:43:01.825Z,3.53
2018-03-20T09:45:30.517Z,3.20
2018-03-20T09:47:59.833Z,2.80
2018-03-20T09:50:28.422Z,3.20
2018-03-20T09:52:59.641Z,3.77
2018-03-20T09:55:28.206Z,3.43
2018-03-20T09:57:56.761Z,3.30
2018-03-20T10:00:26.421Z,4.50
2018-03-20T10:02:54.977Z,3.00
2018-03-20T10:05:23.554Z,3.90
2018-03-20T10:07:52.160Z,3.13
2018-03-20T10:10:20.710Z,3.20
2018-03-20T10:12:49.256Z,3.50
2018-03-20T10:15:17.869Z,4.33
2018-03-20T10:17:46.418Z,2.80
2018-03-20T10:20:15.039Z,3.20
2018-03-20T10:22:43.628Z,3.67
2018-03-20T10:25:12.186Z,2.60
2018-03-20T10:27:40.807Z,3.20
2018-03-20T10:30:09.692Z,2.30
2018-03-20T10:32:38.245Z,2.87
2018-03-20T10:35:06.801Z,2.23
2018-03-20T10:37:36.555Z,1.80
2018-03-20T10:40:05.140Z,2.33
2018-03-20T10:42:33.697Z,2.40
2018-03-20T10:45:02.306Z,2.37
2018-03-20T10:47:30.886Z,1.93
2018-03-20T10:49:59.545Z,2.43
2018-03-20T10:52:28.336Z,1.80
2018-03-20T10:54:56.888Z,1.93
2018-03-20T10:57:25.443Z,2.10
2018-03-20T10:59:54.332Z,2.20
2018-03-20T11:05:20.298Z,2.07
2018-03-20T11:07:49.060Z,2.03
2018-03-20T11:10:17.621Z,1.73
2018-03-20T11:12:46.233Z,2.20
2018-03-20T11:15:14.784Z,2.80
2018-03-20T11:17:43.341Z,2.10
2018-03-20T11:20:12.897Z,1.60
2018-03-20T11:22:41.456Z,1.87
2018-03-20T11:25:10.013Z,1.67
2018-03-20T11:27:39.478Z,1.13
2018-03-20T11:30:08.033Z,1.50
2018-03-20T11:32:36.740Z,1.27
2018-03-20T11:35:05.838Z,1.40
2018-03-20T11:37:34.518Z,1.10
2018-03-20T11:40:03.203Z,1.40
2018-03-20T11:42:32.144Z,1.67
2018-03-20T11:45:01.496Z,1.67
2018-03-20T11:47:30.084Z,1.20
2018-03-20T11:49:59.076Z,1.40
2018-03-20T11:52:27.717Z,1.27
2018-03-20T11:54:56.432Z,2.23
2018-03-20T11:57:25.321Z,1.50
2018-03-20T11:59:53.967Z,1.00
2018-03-20T12:02:23.428Z,1.17
2018-03-20T12:04:52.160Z,2.07
2018-03-20T12:07:20.897Z,1.63
2018-03-20T12:09:49.692Z,2.63
2018-03-20T12:12:18.477Z,2.30
2018-03-20T12:14:47.026Z,2.37
2018-03-20T12:17:15.693Z,1.50
2018-03-20T12:19:45.183Z,1.30
2018-03-20T12:22:14.604Z,1.57
2018-03-20T12:24:44.074Z,1.63
2018-03-20T12:27:13.050Z,1.63
2018-03-20T12:29:41.833Z,2.30
2018-03-20T12:32:10.519Z,2.03
2018-03-20T12:34:39.315Z,3.50
2018-03-20T12:37:08.001Z,3.20
2018-03-20T12:39:36.687Z,2.53
2018-03-20T12:42:05.363Z,2.90
2018-03-20T12:44:34.058Z,3.40
2018-03-20T12:47:02.744Z,3.00
2018-03-20T12:49:31.724Z,3.30
2018-03-20T12:52:00.426Z,1.97
2018-03-20T12:54:29.117Z,2.80
2018-03-20T12:56:57.894Z,3.70
2018-03-20T12:59:26.579Z,3.13
2018-03-20T13:01:55.266Z,4.33
2018-03-20T13:04:24.049Z,3.87
2018-03-20T13:06:52.737Z,2.10
2018-03-20T13:09:21.420Z,6.10
2018-03-20T13:11:50.216Z,2.90
2018-03-20T13:14:18.902Z,2.00
2018-03-20T13:16:47.582Z,1.37
2018-03-20T13:19:16.285Z,2.73
2018-03-20T13:21:45.772Z,4.20
2018-03-20T13:24:14.407Z,5.23
2018-03-20T13:26:43.143Z,2.60
2018-03-20T13:29:11.829Z,3.77
2018-03-20T13:31:40.460Z,2.70
2018-03-20T13:34:09.929Z,5.73
2018-03-20T13:36:38.601Z,2.47
2018-03-20T13:39:07.295Z,3.73
2018-03-20T13:41:36.132Z,4.73
2018-03-20T13:44:05.573Z,7.57
2018-03-20T13:46:34.274Z,6.03
2018-03-20T13:49:03.011Z,3.73
2018-03-20T13:51:31.745Z,4.27
2018-03-20T13:54:00.478Z,2.83
2018-03-20T13:56:30.135Z,2.27
2018-03-20T13:58:58.783Z,2.73
2018-03-20T14:01:27.508Z,1.30
2018-03-20T14:03:56.672Z,2.30
2018-03-20T14:06:25.395Z,2.80
2018-03-20T14:08:54.031Z,2.23
2018-03-20T14:11:23.074Z,2.33
2018-03-20T14:13:51.716Z,1.60
2018-03-20T14:16:20.445Z,1.80
2018-03-20T14:18:49.179Z,1.70
2018-03-20T14:21:17.915Z,2.37
2018-03-20T14:23:46.502Z,1.67
2018-03-20T14:26:15.232Z,1.87
2018-03-20T14:28:44.646Z,1.83
2018-03-20T14:31:13.269Z,2.40
2018-03-20T14:33:42.182Z,3.07
2018-03-20T14:36:10.777Z,2.40
2018-03-20T14:38:39.470Z,3.43
2018-03-20T14:41:08.565Z,5.20
2018-03-20T14:43:37.206Z,2.67
2018-03-20T14:46:05.937Z,2.40
2018-03-20T14:48:35.434Z,5.43
2018-03-20T14:51:04.088Z,2.70
2018-03-20T14:53:32.884Z,1.90
2018-03-20T14:56:01.825Z,3.20
2018-03-20T14:58:31.292Z,3.40
2018-03-20T15:01:00.058Z,3.97
2018-03-20T15:03:28.856Z,6.97
2018-03-20T15:05:57.640Z,4.17
2018-03-20T15:08:26.290Z,5.03
2018-03-20T15:10:55.158Z,4.90
2018-03-20T15:13:24.625Z,7.10
2018-03-20T15:15:53.304Z,6.13
2018-03-20T15:18:22.280Z,6.10
2018-03-20T15:20:50.986Z,4.67
2018-03-20T15:23:19.674Z,2.20
2018-03-20T15:25:48.357Z,2.37
2018-03-20T15:28:17.040Z,3.40
2018-03-20T15:30:45.682Z,3.10
2018-03-20T15:33:14.620Z,2.23
2018-03-20T15:35:43.265Z,2.67
2018-03-20T15:38:11.992Z,3.23
2018-03-20T15:40:40.678Z,2.93
2018-03-20T15:43:09.365Z,2.63
2018-03-20T15:45:38.149Z,2.30
2018-03-20T15:48:06.942Z,3.00
2018-03-20T15:50:35.630Z,2.57
2018-03-20T15:53:04.206Z,2.47
2018-03-20T15:55:33.232Z,3.37
2018-03-20T15:58:01.994Z,3.30
2018-03-20T16:00:30.620Z,3.87
2018-03-20T16:03:00.385Z,4.27
2018-03-20T16:05:29.057Z,4.40
2018-03-20T16:07:57.758Z,5.60
2018-03-20T16:10:26.744Z,5.93
2018-03-20T16:12:55.436Z,6.73
2018-03-20T16:15:24.080Z,6.17
2018-03-20T16:17:52.808Z,5.73
2018-03-20T16:20:21.493Z,5.03
2018-03-20T16:22:50.198Z,5.00
2018-03-20T16:25:18.879Z,5.17
2018-03-20T16:27:47.453Z,12.43
2018-03-20T16:30:16.085Z,21.93
2018-03-20T16:32:45.782Z,19.77
2018-03-20T16:35:15.203Z,11.87
2018-03-20T16:37:43.928Z,20.93
2018-03-20T16:40:12.922Z,11.50
2018-03-20T16:42:41.509Z,40.63
2018-03-20T16:45:10.195Z,24.60
2018-03-20T16:47:39.353Z,19.17
2018-03-20T16:50:08.081Z,17.87
2018-03-20T16:52:36.772Z,11.07
2018-03-20T16:55:05.718Z,22.83
2018-03-20T16:57:34.340Z,23.27
2018-03-20T17:00:02.923Z,13.87
2018-03-20T17:02:31.709Z,16.90
2018-03-20T17:05:00.342Z,10.27
2018-03-20T17:07:29.661Z,11.90
2018-03-20T17:09:58.690Z,14.07
2018-03-20T17:12:27.455Z,11.90
2018-03-20T17:14:56.139Z,8.60
2018-03-20T17:17:25.134Z,7.80
2018-03-20T17:19:53.818Z,11.17
2018-03-20T17:22:22.771Z,68.83
2018-03-20T17:24:51.773Z,49.97
2018-03-20T17:27:20.329Z,29.03
2018-03-20T17:29:49.747Z,18.17
2018-03-20T17:32:18.476Z,17.00
2018-03-20T17:34:47.162Z,19.50
2018-03-20T17:37:15.847Z,76.47
2018-03-20T17:39:44.832Z,35.97
2018-03-20T17:42:13.489Z,32.90
2018-03-20T17:44:42.211Z,20.83
2018-03-20T17:47:10.899Z,20.10
2018-03-20T17:49:39.593Z,18.23
2018-03-20T17:52:08.287Z,27.63
2018-03-20T17:54:37.201Z,12.70
2018-03-20T17:57:06.660Z,14.33
2018-03-20T17:59:35.311Z,11.33
2018-03-20T18:02:05.161Z,11.97
2018-03-20T18:04:33.796Z,11.87
2018-03-20T18:07:02.535Z,8.10
2018-03-20T18:09:31.221Z,9.50
2018-03-20T18:12:01.442Z,6.93
2018-03-20T18:14:30.095Z,9.90
2018-03-20T18:16:58.828Z,20.70
2018-03-20T18:19:27.404Z,28.37
2018-03-20T18:21:55.956Z,21.17
2018-03-20T18:24:24.785Z,17.47
2018-03-20T18:26:53.341Z,19.77
2018-03-20T18:29:21.949Z,23.53
2018-03-20T18:31:50.694Z,34.17
2018-03-20T18:34:19.418Z,20.73
2018-03-20T18:36:48.078Z,20.70
2018-03-20T18:39:17.080Z,19.43
2018-03-20T18:41:45.791Z,20.60
2018-03-20T18:44:15.238Z,21.80
2018-03-20T18:46:44.252Z,23.27
2018-03-20T18:49:13.723Z,18.50
2018-03-20T18:51:42.498Z,16.63
2018-03-20T18:54:11.489Z,15.40
2018-03-20T18:56:40.078Z,14.87
2018-03-20T18:59:08.764Z,15.77
2018-03-20T19:01:37.855Z,13.47
2018-03-20T19:04:06.540Z,12.53
2018-03-20T19:06:35.197Z,14.77
2018-03-20T19:09:04.139Z,18.77
2018-03-20T19:11:32.781Z,19.53
2018-03-20T19:14:02.234Z,19.73
2018-03-20T19:16:31.092Z,16.27
2018-03-20T19:18:59.653Z,13.83
2018-03-20T19:21:29.125Z,15.50
2018-03-20T19:23:58.274Z,17.17
2018-03-20T19:26:26.989Z,23.83
2018-03-20T19:28:55.633Z,14.07
2018-03-20T19:31:24.361Z,14.80
2018-03-20T19:33:53.049Z,17.77
2018-03-20T19:36:21.842Z,24.30
2018-03-20T19:38:50.580Z,16.97
2018-03-20T19:41:19.315Z,25.97
2018-03-20T19:43:47.999Z,25.47
2018-03-20T19:46:16.685Z,25.70
2018-03-20T19:48:45.271Z,17.23
2018-03-20T19:51:13.846Z,23.70
2018-03-20T19:53:42.788Z,22.90
2018-03-20T19:56:12.249Z,16.60
2018-03-20T19:58:40.921Z,38.73
2018-03-20T20:01:09.616Z,24.73
2018-03-20T20:03:38.308Z,33.97
2018-03-20T20:06:07.003Z,152.97
2018-03-20T20:08:35.668Z,88.00
2018-03-20T20:11:04.365Z,100.07
2018-03-20T20:13:33.082Z,340.27
2018-03-20T20:16:02.470Z,513.07
2018-03-20T20:18:31.193Z,550.33
2018-03-20T20:20:59.887Z,513.17
2018-03-20T20:23:28.604Z,217.53
2018-03-20T20:25:57.249Z,98.90
2018-03-20T20:28:25.984Z,385.50
2018-03-20T20:30:54.682Z,375.20
2018-03-20T20:33:23.353Z,404.03
2018-03-20T20:35:52.041Z,379.30
2018-03-20T20:38:21.027Z,297.17
2018-03-20T20:40:49.715Z,163.77
2018-03-20T20:43:18.348Z,68.03
2018-03-20T20:45:47.808Z,41.33
2018-03-20T20:48:16.494Z,28.70
2018-03-20T20:50:45.183Z,17.47
2018-03-20T20:53:13.919Z,13.40
2018-03-20T20:55:42.588Z,13.27
2018-03-20T20:58:12.006Z,15.57
2018-03-20T21:00:40.998Z,32.40
2018-03-20T21:03:09.728Z,59.93
2018-03-20T21:05:38.524Z,114.87
2018-03-20T21:08:07.518Z,164.30
2018-03-20T21:10:36.247Z,159.27
2018-03-20T21:13:05.572Z,284.27
2018-03-20T21:15:34.357Z,195.90
2018-03-20T21:18:03.072Z,145.30
2018-03-20T21:20:31.760Z,101.37
2018-03-20T21:23:00.712Z,63.70
2018-03-20T21:25:29.404Z,54.27
2018-03-20T21:27:58.053Z,37.37
2018-03-20T21:30:27.915Z,77.43
2018-03-20T21:32:56.624Z,42.67
2018-03-20T21:35:25.925Z,59.10
2018-03-20T21:37:54.869Z,62.60
2018-03-20T21:40:23.425Z,30.77
2018-03-20T21:42:52.176Z,15.70
2018-03-20T21:45:20.870Z,10.33
2018-03-20T21:47:49.520Z,12.37
2018-03-20T21:50:18.247Z,9.43
2018-03-20T21:52:47.230Z,8.47
2018-03-20T21:55:15.926Z,15.20
2018-03-20T21:57:44.503Z,52.10
2018-03-20T22:00:13.454Z,37.10
2018-03-20T22:02:42.181Z,28.47
2018-03-20T22:05:10.816Z,10.83
2018-03-20T22:07:39.552Z,10.60
2018-03-20T22:10:08.105Z,10.43
2018-03-20T22:12:36.768Z,10.20
2018-03-20T22:15:06.241Z,22.77
2018-03-20T22:17:34.952Z,59.17
2018-03-20T22:20:04.473Z,56.37
2018-03-20T22:22:33.491Z,63.13
2018-03-20T22:25:02.196Z,50.63
2018-03-20T22:27:30.852Z,45.53
2018-03-20T22:29:59.619Z,51.37
2018-03-20T22:32:29.037Z,77.50
2018-03-20T22:34:57.766Z,110.87
2018-03-20T22:37:26.377Z,58.87
2018-03-20T22:39:55.851Z,21.20
2018-03-20T22:42:24.581Z,19.13
2018-03-20T22:44:54.055Z,22.53
2018-03-20T22:47:22.821Z,25.50
2018-03-20T22:49:51.524Z,14.03
2018-03-20T22:52:21.280Z,11.60
2018-03-20T22:54:50.018Z,11.27
2018-03-20T22:57:18.693Z,10.93
2018-03-20T22:59:47.635Z,10.67
2018-03-20T23:02:17.061Z,10.83
2018-03-20T23:04:45.777Z,12.03
2018-03-20T23:07:14.511Z,12.87
2018-03-20T23:09:43.982Z,25.60
2018-03-20T23:12:12.759Z,21.23
2018-03-20T23:14:41.552Z,23.27
2018-03-20T23:17:10.242Z,25.23
2018-03-20T23:19:38.928Z,25.67
2018-03-20T23:22:07.806Z,23.00
2018-03-20T23:24:36.439Z,23.63
2018-03-20T23:27:05.903Z,22.97
2018-03-20T23:29:34.577Z,20.60
2018-03-20T23:32:03.128Z,19.50
2018-03-20T23:34:31.850Z,19.10
2018-03-20T23:37:00.645Z,21.30
2018-03-20T23:39:29.331Z,51.60
2018-03-20T23:41:58.017Z,33.13
2018-03-20T23:44:26.694Z,31.53
2018-03-20T23:46:55.390Z,19.47
2018-03-20T23:49:24.119Z,20.20
2018-03-20T23:51:53.585Z,20.60
2018-03-20T23:54:22.150Z,23.40
2018-03-20T23:56:50.798Z,25.07
2018-03-20T23:59:19.842Z,33.70
